createdAt,value
2023-04-22T00:00:22.856Z,77.80
2023-04-22T00:02:49.654Z,78.60
2023-04-22T00:05:20.273Z,78.10
2023-04-22T00:07:47.761Z,78.10
2023-04-22T00:10:14.530Z,78.10
2023-04-22T00:12:41.230Z,78.20
2023-04-22T00:15:08.657Z,78.30
2023-04-22T00:17:36.005Z,78.40
2023-04-22T00:20:03.657Z,78.50
2023-04-22T00:22:30.327Z,78.70
2023-04-22T00:24:57.011Z,78.90
2023-04-22T00:27:23.731Z,79.00
2023-04-22T00:29:50.425Z,79.20
2023-04-22T00:32:17.281Z,80.40
2023-04-22T00:34:44.010Z,79.40
2023-04-22T00:37:10.801Z,79.50
2023-04-22T00:39:39.546Z,79.50
2023-04-22T00:42:07.781Z,79.70
2023-04-22T00:44:36.261Z,80.60
2023-04-22T00:47:03.590Z,79.90
2023-04-22T00:49:31.244Z,81.00
2023-04-22T00:51:57.934Z,80.20
2023-04-22T00:54:24.640Z,80.30
2023-04-22T00:56:51.450Z,80.30
2023-04-22T00:59:18.170Z,80.80
2023-04-22T01:01:44.891Z,80.80
2023-04-22T01:04:12.818Z,80.70
2023-04-22T01:06:41.092Z,81.00
2023-04-22T01:09:07.901Z,81.00
2023-04-22T01:11:36.278Z,81.20
2023-04-22T01:14:03.819Z,81.20
2023-04-22T01:16:34.133Z,81.30
2023-04-22T01:19:01.107Z,81.50
2023-04-22T01:21:28.195Z,81.50
2023-04-22T01:23:55.121Z,81.80
2023-04-22T01:26:22.394Z,82.20
2023-04-22T01:28:49.172Z,82.40
2023-04-22T01:31:16.035Z,82.30
2023-04-22T01:33:44.381Z,82.40
2023-04-22T01:36:13.008Z,82.50
2023-04-22T01:38:40.876Z,82.70
2023-04-22T01:41:08.033Z,82.70
2023-04-22T01:43:35.023Z,82.60
2023-04-22T01:46:02.503Z,82.70
2023-04-22T01:48:29.253Z,82.90
2023-04-22T01:50:56.079Z,83.20
2023-04-22T01:53:22.868Z,82.80
2023-04-22T01:55:49.527Z,82.90
2023-04-22T01:58:16.399Z,83.20
2023-04-22T02:00:43.079Z,83.40
2023-04-22T02:03:10.095Z,83.40
2023-04-22T02:05:38.096Z,83.20
2023-04-22T02:08:04.922Z,83.30
2023-04-22T02:10:31.967Z,83.40
2023-04-22T02:12:59.352Z,83.30
2023-04-22T02:15:26.198Z,83.60
2023-04-22T02:17:53.087Z,83.50
2023-04-22T02:20:19.966Z,83.60
2023-04-22T02:22:46.738Z,83.50
2023-04-22T02:25:15.006Z,83.70
2023-04-22T02:27:41.702Z,84.10
2023-04-22T02:30:09.703Z,84.30
2023-04-22T02:32:38.771Z,84.30
2023-04-22T02:35:06.641Z,85.10
2023-04-22T02:37:33.370Z,84.60
2023-04-22T02:40:00.011Z,84.70
2023-04-22T02:42:26.792Z,85.10
2023-04-22T02:44:53.520Z,85.10
2023-04-22T02:47:20.447Z,85.70
2023-04-22T02:49:47.153Z,85.50
2023-04-22T02:52:14.005Z,85.40
2023-04-22T02:54:40.688Z,85.60
2023-04-22T02:57:07.647Z,86.60
2023-04-22T02:59:35.886Z,85.70
2023-04-22T03:02:04.409Z,85.90
2023-04-22T03:04:33.645Z,86.20
2023-04-22T03:07:00.426Z,86.00
2023-04-22T03:09:27.113Z,86.20
2023-04-22T03:11:53.800Z,85.90
2023-04-22T03:14:20.710Z,86.00
2023-04-22T03:16:47.515Z,86.20
2023-04-22T03:19:14.316Z,86.30
2023-04-22T03:21:40.963Z,86.20
2023-04-22T03:24:07.828Z,86.20
2023-04-22T03:26:34.501Z,86.40
2023-04-22T03:29:01.361Z,87.40
2023-04-22T03:31:28.088Z,86.30
2023-04-22T03:33:54.802Z,86.70
2023-04-22T03:36:21.800Z,87.00
2023-04-22T03:38:48.530Z,87.00
2023-04-22T03:41:15.276Z,86.90
2023-04-22T03:43:41.919Z,86.90
2023-04-22T03:46:08.796Z,87.20
2023-04-22T03:48:35.937Z,87.70
2023-04-22T03:51:03.463Z,87.70
2023-04-22T03:53:30.156Z,87.80
2023-04-22T03:55:56.889Z,87.70
2023-04-22T03:58:23.578Z,87.90
2023-04-22T04:00:50.475Z,87.80
2023-04-22T04:03:17.308Z,88.00
2023-04-22T04:05:44.142Z,88.10
2023-04-22T04:08:11.245Z,88.80
2023-04-22T04:10:38.074Z,88.20
2023-04-22T04:13:05.134Z,88.50
2023-04-22T04:15:32.723Z,88.10
2023-04-22T04:18:01.243Z,89.20
2023-04-22T04:20:28.186Z,88.60
2023-04-22T04:22:54.917Z,88.60
2023-04-22T04:25:21.681Z,88.80
2023-04-22T04:27:48.586Z,88.90
2023-04-22T04:30:16.327Z,90.00
2023-04-22T04:32:45.601Z,89.40
2023-04-22T04:35:15.274Z,89.40
2023-04-22T04:37:46.464Z,89.20
2023-04-22T04:40:13.768Z,89.30
2023-04-22T04:42:40.763Z,89.50
2023-04-22T04:45:09.299Z,89.40
2023-04-22T04:47:36.069Z,89.50
2023-04-22T04:50:04.344Z,89.60
2023-04-22T04:52:32.153Z,89.60
2023-04-22T04:54:59.065Z,89.90
2023-04-22T04:57:25.839Z,89.70
2023-04-22T04:59:52.682Z,89.90
2023-04-22T05:02:19.871Z,90.10
2023-04-22T05:04:46.879Z,90.50
2023-04-22T05:07:14.314Z,90.80
2023-04-22T05:09:41.500Z,90.40
2023-04-22T05:12:08.561Z,90.30
2023-04-22T05:14:35.380Z,90.30
2023-04-22T05:17:02.710Z,90.30
2023-04-22T05:19:29.404Z,90.40
2023-04-22T05:21:56.117Z,90.50
2023-04-22T05:24:22.804Z,90.60
2023-04-22T05:26:49.892Z,90.50
2023-04-22T05:29:16.754Z,90.50
2023-04-22T05:31:43.526Z,90.60
2023-04-22T05:34:11.869Z,90.60
2023-04-22T05:36:38.815Z,90.80
2023-04-22T05:39:06.077Z,90.80
2023-04-22T05:41:32.895Z,90.90
2023-04-22T05:43:59.790Z,90.90
2023-04-22T05:46:26.715Z,90.90
2023-04-22T05:48:54.868Z,90.90
2023-04-22T05:51:23.576Z,90.80
2023-04-22T05:53:50.961Z,91.20
2023-04-22T05:56:17.886Z,91.20
2023-04-22T05:58:44.881Z,90.90
2023-04-22T06:01:11.685Z,91.00
2023-04-22T06:03:39.008Z,91.00
2023-04-22T06:06:06.521Z,91.00
2023-04-22T06:08:33.449Z,91.10
2023-04-22T06:11:00.481Z,91.20
2023-04-22T06:13:28.033Z,91.10
2023-04-22T06:15:55.098Z,91.00
2023-04-22T06:18:21.967Z,91.00
2023-04-22T06:20:49.115Z,91.00
2023-04-22T06:23:15.952Z,91.10
2023-04-22T06:25:43.206Z,91.00
2023-04-22T06:28:10.220Z,91.10
2023-04-22T06:30:36.891Z,91.40
2023-04-22T06:33:03.841Z,91.10
2023-04-22T06:35:31.333Z,91.10
2023-04-22T06:37:58.048Z,91.50
2023-04-22T06:40:25.024Z,91.20
2023-04-22T06:42:51.928Z,91.10
2023-04-22T06:45:18.807Z,91.10
2023-04-22T06:47:45.859Z,91.00
2023-04-22T06:50:12.753Z,90.80
2023-04-22T06:52:39.681Z,90.60
2023-04-22T06:55:07.166Z,90.40
2023-04-22T06:57:34.076Z,90.20
2023-04-22T07:00:01.212Z,90.10
2023-04-22T07:02:28.291Z,90.00
2023-04-22T07:04:58.406Z,89.50
2023-04-22T07:07:25.389Z,88.80
2023-04-22T07:09:52.472Z,88.20
2023-04-22T07:12:19.484Z,88.10
2023-04-22T07:14:47.100Z,87.20
2023-04-22T07:17:13.904Z,86.90
2023-04-22T07:19:41.505Z,86.40
2023-04-22T07:22:08.668Z,85.60
2023-04-22T07:24:35.850Z,84.90
2023-04-22T07:27:03.811Z,84.20
2023-04-22T07:29:30.495Z,83.80
2023-04-22T07:31:57.970Z,83.50
2023-04-22T07:34:25.263Z,82.70
2023-04-22T07:36:54.035Z,81.80
2023-04-22T07:39:23.359Z,81.00
2023-04-22T07:41:51.684Z,80.70
2023-04-22T07:44:21.845Z,80.00
2023-04-22T07:46:50.449Z,79.30
2023-04-22T07:49:17.848Z,78.80
2023-04-22T07:51:46.640Z,78.30
2023-04-22T07:54:14.858Z,77.80
2023-04-22T07:56:42.144Z,76.90
2023-04-22T07:59:09.379Z,76.10
2023-04-22T08:01:36.822Z,75.30
2023-04-22T08:04:04.220Z,74.40
2023-04-22T08:06:32.782Z,73.80
2023-04-22T08:09:00.582Z,72.90
2023-04-22T08:11:28.571Z,72.40
2023-04-22T08:13:56.883Z,71.80
2023-04-22T08:16:24.278Z,71.30
2023-04-22T08:18:52.303Z,70.50
2023-04-22T08:21:19.096Z,69.70
2023-04-22T08:23:46.785Z,69.00
2023-04-22T08:26:15.324Z,68.20
2023-04-22T08:28:45.180Z,67.40
2023-04-22T08:31:12.985Z,66.90
2023-04-22T08:33:43.019Z,66.10
2023-04-22T08:36:11.122Z,65.30
2023-04-22T08:38:38.113Z,65.00
2023-04-22T08:41:06.189Z,64.80
2023-04-22T08:43:34.370Z,63.80
2023-04-22T08:46:02.153Z,62.80
2023-04-22T08:48:28.856Z,62.00
2023-04-22T08:50:55.851Z,61.50
2023-04-22T08:53:24.623Z,60.50
2023-04-22T08:55:52.099Z,60.10
2023-04-22T08:58:19.022Z,59.30
2023-04-22T09:00:45.927Z,58.70
2023-04-22T09:03:12.979Z,58.60
2023-04-22T09:05:41.211Z,58.50
2023-04-22T09:08:09.823Z,58.30
2023-04-22T09:10:38.134Z,58.00
2023-04-22T09:13:06.315Z,57.60
2023-04-22T09:15:33.777Z,58.30
2023-04-22T09:18:03.621Z,57.70
2023-04-22T09:20:31.483Z,57.30
2023-04-22T09:23:04.072Z,57.00
2023-04-22T09:25:35.106Z,56.40
2023-04-22T09:28:02.258Z,56.10
2023-04-22T09:30:34.903Z,55.80
2023-04-22T09:33:04.289Z,55.00
2023-04-22T09:35:38.143Z,55.00
2023-04-22T09:38:10.405Z,54.80
2023-04-22T09:40:41.219Z,54.00
2023-04-22T09:43:09.510Z,53.80
2023-04-22T09:45:43.277Z,53.90
2023-04-22T09:48:14.305Z,53.30
2023-04-22T09:50:44.474Z,52.30
2023-04-22T09:53:13.689Z,52.10
2023-04-22T09:55:43.532Z,52.10
2023-04-22T09:58:14.950Z,51.80
2023-04-22T10:00:48.987Z,52.30
2023-04-22T10:03:16.856Z,52.60
2023-04-22T10:05:45.698Z,52.30
2023-04-22T10:08:14.263Z,51.80
2023-04-22T10:10:41.473Z,51.40
2023-04-22T10:13:08.627Z,51.40
2023-04-22T10:15:39.863Z,51.10
2023-04-22T10:18:13.355Z,49.70
2023-04-22T10:20:42.431Z,49.70
2023-04-22T10:23:19.645Z,49.60
2023-04-22T10:25:58.922Z,48.50
2023-04-22T10:28:28.873Z,48.50
2023-04-22T10:30:55.795Z,47.80
2023-04-22T10:33:23.957Z,48.10
2023-04-22T10:36:15.015Z,47.80
2023-04-22T10:39:03.015Z,47.90
2023-04-22T10:41:32.300Z,47.40
2023-04-22T10:44:01.187Z,47.80
2023-04-22T10:46:32.016Z,47.90
2023-04-22T10:48:59.647Z,47.90
2023-04-22T10:51:42.766Z,47.70
2023-04-22T10:54:33.627Z,46.80
2023-04-22T10:57:08.256Z,47.10
2023-04-22T10:59:58.033Z,46.70
2023-04-22T11:02:24.978Z,45.80
2023-04-22T11:04:57.009Z,46.30
2023-04-22T11:07:27.070Z,45.70
2023-04-22T11:10:03.161Z,45.50
2023-04-22T11:12:35.966Z,46.20
2023-04-22T11:15:10.577Z,46.10
2023-04-22T11:17:39.014Z,44.80
2023-04-22T11:20:07.638Z,45.00
2023-04-22T11:22:39.181Z,45.00
2023-04-22T11:25:06.626Z,45.30
2023-04-22T11:27:33.390Z,44.40
2023-04-22T11:30:08.303Z,44.30
2023-04-22T11:32:36.129Z,44.00
2023-04-22T11:35:08.545Z,43.90
2023-04-22T11:37:55.965Z,43.40
2023-04-22T11:40:46.152Z,43.80
2023-04-22T11:43:14.209Z,44.40
2023-04-22T11:45:41.547Z,44.10
2023-04-22T11:48:10.131Z,44.50
2023-04-22T11:50:39.702Z,44.50
2023-04-22T11:53:18.851Z,44.00
2023-04-22T11:55:47.435Z,43.20
2023-04-22T11:58:19.399Z,43.40
2023-04-22T12:00:51.884Z,43.60
2023-04-22T12:03:24.829Z,44.10
2023-04-22T12:05:54.208Z,43.60
2023-04-22T12:08:23.889Z,43.80
2023-04-22T12:10:59.647Z,43.80
2023-04-22T12:13:48.097Z,42.50
2023-04-22T12:16:18.544Z,42.10
2023-04-22T12:18:48.303Z,42.40
2023-04-22T12:21:17.886Z,42.50
2023-04-22T12:23:49.089Z,42.70
2023-04-22T12:26:17.775Z,42.60
2023-04-22T12:28:45.895Z,42.90
2023-04-22T12:31:14.169Z,43.10
2023-04-22T12:33:41.568Z,42.90
2023-04-22T12:36:08.632Z,42.30
2023-04-22T12:38:35.861Z,42.70
2023-04-22T12:41:04.836Z,42.90
2023-04-22T12:43:33.614Z,42.80
2023-04-22T12:46:00.533Z,43.10
2023-04-22T12:48:27.717Z,43.00
2023-04-22T12:50:54.655Z,43.00
2023-04-22T12:53:22.392Z,42.70
2023-04-22T12:55:49.819Z,42.80
2023-04-22T12:58:16.960Z,42.70
2023-04-22T13:00:44.275Z,42.30
2023-04-22T13:03:14.850Z,43.00
2023-04-22T13:05:42.216Z,43.40
2023-04-22T13:08:09.494Z,43.60
2023-04-22T13:10:36.668Z,43.10
2023-04-22T13:15:39.224Z,43.50
2023-04-22T13:18:06.724Z,43.80
2023-04-22T13:20:39.860Z,43.30
2023-04-22T13:23:08.354Z,43.00
2023-04-22T13:25:36.383Z,42.60
2023-04-22T13:28:03.483Z,42.70
2023-04-22T13:30:30.782Z,42.40
2023-04-22T13:32:57.917Z,42.70
2023-04-22T13:35:25.048Z,42.40
2023-04-22T13:37:52.066Z,43.40
2023-04-22T13:40:19.129Z,44.10
2023-04-22T13:42:46.502Z,44.00
2023-04-22T13:45:13.647Z,44.00
2023-04-22T13:47:41.026Z,43.40
2023-04-22T13:50:08.896Z,43.60
2023-04-22T13:52:36.087Z,43.60
2023-04-22T13:55:04.240Z,43.40
2023-04-22T13:57:31.719Z,43.70
2023-04-22T13:59:58.815Z,43.90
2023-04-22T14:02:25.976Z,43.80
2023-04-22T14:04:53.304Z,44.10
2023-04-22T14:07:20.572Z,44.20
2023-04-22T14:09:48.459Z,44.40
2023-04-22T14:12:15.480Z,44.30
2023-04-22T14:14:42.637Z,44.00
2023-04-22T14:17:09.663Z,44.40
2023-04-22T14:19:39.192Z,44.70
2023-04-22T14:22:06.945Z,44.40
2023-04-22T14:24:34.116Z,44.30
2023-04-22T14:27:04.530Z,44.30
2023-04-22T14:29:32.112Z,44.70
2023-04-22T14:31:59.649Z,43.80
2023-04-22T14:34:29.785Z,43.90
2023-04-22T14:36:58.007Z,42.80
2023-04-22T14:39:27.653Z,43.00
2023-04-22T14:41:58.451Z,43.50
2023-04-22T14:44:29.697Z,43.40
2023-04-22T14:47:00.557Z,43.50
2023-04-22T14:49:32.723Z,43.10
2023-04-22T14:52:03.989Z,43.40
2023-04-22T14:54:31.457Z,43.80
2023-04-22T14:56:58.867Z,44.30
2023-04-22T14:59:32.666Z,44.60
2023-04-22T15:02:06.354Z,44.60
2023-04-22T15:04:33.763Z,44.90
2023-04-22T15:07:06.918Z,44.80
2023-04-22T15:09:37.948Z,44.00
2023-04-22T15:12:09.368Z,43.60
2023-04-22T15:14:39.637Z,44.20
2023-04-22T15:17:06.732Z,44.60
2023-04-22T15:19:37.195Z,44.40
2023-04-22T15:22:04.598Z,44.50
2023-04-22T15:24:31.810Z,44.30
2023-04-22T15:27:00.871Z,44.20
2023-04-22T15:29:28.729Z,44.10
2023-04-22T15:31:59.035Z,43.70
2023-04-22T15:34:26.418Z,43.60
2023-04-22T15:36:54.400Z,42.70
2023-04-22T15:39:23.977Z,42.60
2023-04-22T15:41:55.217Z,42.70
2023-04-22T15:44:22.305Z,42.80
2023-04-22T15:46:52.317Z,43.20
2023-04-22T15:49:26.373Z,43.40
2023-04-22T15:51:54.073Z,43.50
2023-04-22T15:54:21.361Z,43.50
2023-04-22T15:56:48.626Z,43.30
2023-04-22T15:59:21.745Z,43.10
2023-04-22T16:01:50.944Z,43.10
2023-04-22T16:04:19.623Z,42.80
2023-04-22T16:06:49.074Z,43.60
2023-04-22T16:09:18.078Z,43.90
2023-04-22T16:11:48.934Z,44.20
2023-04-22T16:14:17.124Z,44.80
2023-04-22T16:16:47.866Z,44.00
2023-04-22T16:19:18.817Z,44.20
2023-04-22T16:21:48.390Z,44.30
2023-04-22T16:24:19.862Z,44.30
2023-04-22T16:26:47.119Z,44.40
2023-04-22T16:29:17.323Z,44.50
2023-04-22T16:31:44.447Z,44.40
2023-04-22T16:34:14.988Z,44.80
2023-04-22T16:36:44.384Z,45.00
2023-04-22T16:39:15.262Z,45.10
2023-04-22T16:41:43.591Z,45.50
2023-04-22T16:44:10.756Z,45.70
2023-04-22T16:46:38.274Z,45.40
2023-04-22T16:49:10.581Z,45.00
2023-04-22T16:51:38.062Z,44.90
2023-04-22T16:54:05.907Z,45.40
2023-04-22T16:56:37.686Z,45.80
2023-04-22T16:59:08.204Z,46.20
2023-04-22T17:01:40.973Z,46.10
2023-04-22T17:04:11.751Z,46.20
2023-04-22T17:06:41.519Z,46.20
2023-04-22T17:09:09.878Z,46.30
2023-04-22T17:11:37.301Z,46.60
2023-04-22T17:14:04.357Z,47.00
2023-04-22T17:16:35.282Z,47.40
2023-04-22T17:19:02.464Z,47.70
2023-04-22T17:21:29.624Z,47.70
2023-04-22T17:23:58.799Z,47.50
2023-04-22T17:26:26.563Z,47.60
2023-04-22T17:28:56.077Z,47.70
2023-04-22T17:31:23.730Z,47.80
2023-04-22T17:33:50.767Z,47.50
2023-04-22T17:36:19.985Z,46.90
2023-04-22T17:38:47.177Z,46.20
2023-04-22T17:41:14.621Z,46.50
2023-04-22T17:43:41.919Z,46.70
2023-04-22T17:46:09.495Z,47.30
2023-04-22T17:48:36.871Z,47.10
2023-04-22T17:51:07.685Z,46.80
2023-04-22T17:53:34.911Z,47.00
2023-04-22T17:56:01.971Z,47.30
2023-04-22T17:58:43.116Z,47.80
2023-04-22T18:01:10.143Z,48.20
2023-04-22T18:03:37.446Z,48.40
2023-04-22T18:06:04.510Z,48.70
2023-04-22T18:08:34.459Z,49.20
2023-04-22T18:11:03.237Z,49.60
2023-04-22T18:13:30.156Z,50.10
2023-04-22T18:15:57.056Z,50.30
2023-04-22T18:18:23.898Z,50.60
2023-04-22T18:20:50.845Z,51.00
2023-04-22T18:23:20.917Z,51.20
2023-04-22T18:25:48.040Z,51.40
2023-04-22T18:28:15.812Z,52.40
2023-04-22T18:30:44.321Z,52.30
2023-04-22T18:33:11.330Z,52.60
2023-04-22T18:35:41.386Z,53.00
2023-04-22T18:38:08.209Z,53.40
2023-04-22T18:40:35.094Z,53.70
2023-04-22T18:43:02.203Z,54.00
2023-04-22T18:45:28.922Z,54.30
2023-04-22T18:47:58.878Z,54.60
2023-04-22T18:50:25.823Z,54.90
2023-04-22T18:52:53.255Z,55.30
2023-04-22T18:55:20.179Z,55.80
2023-04-22T18:57:46.927Z,56.20
2023-04-22T19:00:14.264Z,56.60
2023-04-22T19:02:42.552Z,57.00
2023-04-22T19:05:13.548Z,57.40
2023-04-22T19:07:45.232Z,57.80
2023-04-22T19:10:12.611Z,58.00
2023-04-22T19:12:43.951Z,58.30
2023-04-22T19:15:11.735Z,58.70
2023-04-22T19:17:42.691Z,58.80
2023-04-22T19:20:14.286Z,59.20
2023-04-22T19:22:41.728Z,59.60
2023-04-22T19:25:09.484Z,59.40
2023-04-22T19:27:37.350Z,59.30
2023-04-22T19:30:06.787Z,59.80
2023-04-22T19:32:34.309Z,60.20
2023-04-22T19:35:03.981Z,60.60
2023-04-22T19:37:31.563Z,60.80
2023-04-22T19:40:04.237Z,61.20
2023-04-22T19:42:31.974Z,61.50
2023-04-22T19:45:00.145Z,61.80
2023-04-22T19:47:28.411Z,62.10
2023-04-22T19:50:06.862Z,62.50
2023-04-22T19:52:35.939Z,62.90
2023-04-22T19:55:10.871Z,63.20
2023-04-22T19:57:42.532Z,63.50
2023-04-22T20:00:11.281Z,63.70
2023-04-22T20:02:39.710Z,64.00
2023-04-22T20:05:10.858Z,64.10
2023-04-22T20:07:38.728Z,64.40
2023-04-22T20:10:08.645Z,64.60
2023-04-22T20:12:37.351Z,65.00
2023-04-22T20:15:09.639Z,65.00
2023-04-22T20:17:40.503Z,65.30
2023-04-22T20:20:13.167Z,65.60
2023-04-22T20:22:44.855Z,65.80
2023-04-22T20:25:14.117Z,66.00
2023-04-22T20:27:42.194Z,66.30
2023-04-22T20:30:10.580Z,66.70
2023-04-22T20:32:37.998Z,67.00
2023-04-22T20:35:12.553Z,67.30
2023-04-22T20:37:40.134Z,67.40
2023-04-22T20:40:11.271Z,67.50
2023-04-22T20:42:38.417Z,67.60
2023-04-22T20:45:09.899Z,67.80
2023-04-22T20:47:40.473Z,68.10
2023-04-22T20:50:08.445Z,68.00
2023-04-22T20:52:35.765Z,67.60
2023-04-22T20:55:07.256Z,68.10
2023-04-22T20:57:37.408Z,68.60
2023-04-22T21:00:07.735Z,68.40
2023-04-22T21:02:36.435Z,68.20
2023-04-22T21:05:07.788Z,68.80
2023-04-22T21:07:38.094Z,69.10
2023-04-22T21:10:06.075Z,69.40
2023-04-22T21:12:33.477Z,69.70
2023-04-22T21:15:04.486Z,70.00
2023-04-22T21:17:37.913Z,70.30
2023-04-22T21:20:05.763Z,70.20
2023-04-22T21:22:40.028Z,70.20
2023-04-22T21:25:11.332Z,70.50
2023-04-22T21:27:41.969Z,70.60
2023-04-22T21:30:09.709Z,70.70
2023-04-22T21:32:41.601Z,70.70
2023-04-22T21:35:11.400Z,70.90
2023-04-22T21:37:38.450Z,71.10
2023-04-22T21:40:08.794Z,71.20
2023-04-22T21:42:35.829Z,71.40
2023-04-22T21:45:04.218Z,71.50
2023-04-22T21:47:35.010Z,71.70
2023-04-22T21:50:02.371Z,71.70
2023-04-22T21:52:29.565Z,71.80
2023-04-22T21:54:56.644Z,71.90
2023-04-22T21:57:24.247Z,72.00
2023-04-22T21:59:51.416Z,72.10
2023-04-22T22:02:18.792Z,72.30
2023-04-22T22:04:49.040Z,72.30
2023-04-22T22:07:18.176Z,72.40
2023-04-22T22:09:46.666Z,72.40
2023-04-22T22:12:15.680Z,72.60
2023-04-22T22:14:43.706Z,72.70
2023-04-22T22:17:10.820Z,72.70
2023-04-22T22:19:42.087Z,72.70
2023-04-22T22:22:12.899Z,72.90
2023-04-22T22:24:40.311Z,72.90
2023-04-22T22:27:10.076Z,72.90
2023-04-22T22:29:41.077Z,73.80
2023-04-22T22:32:08.423Z,73.20
2023-04-22T22:34:39.573Z,73.30
2023-04-22T22:37:07.378Z,73.70
2023-04-22T22:39:34.499Z,73.60
2023-04-22T22:42:02.124Z,73.60
2023-04-22T22:44:32.805Z,73.60
2023-04-22T22:47:00.381Z,73.60
2023-04-22T22:49:27.438Z,73.70
2023-04-22T22:51:58.855Z,73.70
2023-04-22T22:54:29.173Z,73.70
2023-04-22T22:56:59.446Z,73.50
2023-04-22T22:59:26.290Z,73.30
2023-04-22T23:01:53.845Z,73.60
2023-04-22T23:04:27.542Z,73.60
2023-04-22T23:06:55.617Z,73.70
2023-04-22T23:09:26.441Z,73.70
2023-04-22T23:11:55.854Z,73.70
2023-04-22T23:14:26.881Z,74.40
2023-04-22T23:16:54.105Z,73.70
2023-04-22T23:19:22.207Z,73.60
2023-04-22T23:21:49.873Z,73.70
2023-04-22T23:24:17.537Z,73.50
2023-04-22T23:26:48.590Z,73.40
2023-04-22T23:29:16.873Z,73.30
2023-04-22T23:31:45.083Z,73.10
2023-04-22T23:34:15.171Z,73.10
2023-04-22T23:36:43.253Z,72.90
2023-04-22T23:39:10.498Z,72.80
2023-04-22T23:41:37.605Z,72.70
2023-04-22T23:44:05.213Z,72.60
2023-04-22T23:46:32.744Z,72.60
2023-04-22T23:49:03.234Z,72.50
2023-04-22T23:51:30.554Z,72.40
2023-04-22T23:54:02.009Z,72.30
2023-04-22T23:56:29.256Z,72.20
2023-04-22T23:58:57.257Z,72.10
